Bloomville, Ohio
Current Conditions -  °F | °C
As of 4:53 AM on Saturday 22 Nov 2014 (Local Time) from KMNN Reporting Station
Overcast Overcast  
Wind Chill: 17°   Ceiling: 2900
Heat Index: 28°   Visibility: 10mi
Dew Point: 13°   Wind: 13mph
Humidity: 53%   Direction: 160°SSE
Pressure: 30.27"   Gusts: NA
Location:  41.05°N, 83.01°W
Report Text: KMNN 220953Z AUTO 16011KT 10SM OVC029 M02/M11 A3027 RMK AO2 SLP264 T10221106 TSNO
Loading
Personal Weather Stations






























Interactive Weather Map New forecast layout! Learn more

10-Day Weather Forecast

Advertisements
Track Severe Weather on mobile